sensor_id;sensor_type;location;lat;lon;timestamp;temperature;humidity
47590;DHT22;33316;52.298;9.056;2023-11-19T00:01:27;8.50;99.90
47590;DHT22;33316;52.298;9.056;2023-11-19T00:03:54;8.60;99.90
47590;DHT22;33316;52.298;9.056;2023-11-19T00:06:21;8.60;99.90
47590;DHT22;33316;52.298;9.056;2023-11-19T00:08:49;8.60;99.90
47590;DHT22;33316;52.298;9.056;2023-11-19T00:11:17;8.60;99.90
47590;DHT22;33316;52.298;9.056;2023-11-19T00:13:43;8.60;99.90
47590;DHT22;33316;52.298;9.056;2023-11-19T00:16:10;8.60;99.90
47590;DHT22;33316;52.298;9.056;2023-11-19T00:18:37;8.70;99.90
47590;DHT22;33316;52.298;9.056;2023-11-19T00:21:05;8.70;99.90
47590;DHT22;33316;52.298;9.056;2023-11-19T00:23:33;8.70;99.90
47590;DHT22;33316;52.298;9.056;2023-11-19T00:26:01;8.70;99.90
47590;DHT22;33316;52.298;9.056;2023-11-19T00:28:31;8.70;99.90
47590;DHT22;33316;52.298;9.056;2023-11-19T00:30:59;8.70;99.90
47590;DHT22;33316;52.298;9.056;2023-11-19T00:33:26;8.70;99.90
47590;DHT22;33316;52.298;9.056;2023-11-19T00:35:53;8.80;99.90
47590;DHT22;33316;52.298;9.056;2023-11-19T00:38:21;8.80;99.90
47590;DHT22;33316;52.298;9.056;2023-11-19T00:40:50;8.80;99.90
47590;DHT22;33316;52.298;9.056;2023-11-19T00:43:18;8.90;99.90
47590;DHT22;33316;52.298;9.056;2023-11-19T00:45:48;8.90;99.90
47590;DHT22;33316;52.298;9.056;2023-11-19T00:48:16;8.90;99.90
47590;DHT22;33316;52.298;9.056;2023-11-19T00:50:43;8.90;99.90
47590;DHT22;33316;52.298;9.056;2023-11-19T00:53:11;8.90;99.90
47590;DHT22;33316;52.298;9.056;2023-11-19T00:55:38;8.90;99.90
47590;DHT22;33316;52.298;9.056;2023-11-19T00:58:05;8.90;99.90
47590;DHT22;33316;52.298;9.056;2023-11-19T01:00:33;8.90;99.90
47590;DHT22;33316;52.298;9.056;2023-11-19T01:03:01;9.00;99.90
47590;DHT22;33316;52.298;9.056;2023-11-19T01:05:28;9.00;99.90
47590;DHT22;33316;52.298;9.056;2023-11-19T01:07:55;9.00;99.90
47590;DHT22;33316;52.298;9.056;2023-11-19T01:10:22;9.00;99.90
47590;DHT22;33316;52.298;9.056;2023-11-19T01:12:48;9.00;99.90
47590;DHT22;33316;52.298;9.056;2023-11-19T01:15:17;9.10;99.90
47590;DHT22;33316;52.298;9.056;2023-11-19T01:17:48;9.20;99.90
47590;DHT22;33316;52.298;9.056;2023-11-19T01:20:15;9.20;99.90
47590;DHT22;33316;52.298;9.056;2023-11-19T01:22:43;9.30;99.90
47590;DHT22;33316;52.298;9.056;2023-11-19T01:25:10;9.30;99.90
47590;DHT22;33316;52.298;9.056;2023-11-19T01:27:38;9.30;99.90
47590;DHT22;33316;52.298;9.056;2023-11-19T01:30:06;9.40;99.90
47590;DHT22;33316;52.298;9.056;2023-11-19T01:32:35;9.40;99.90
47590;DHT22;33316;52.298;9.056;2023-11-19T01:35:04;9.40;99.90
47590;DHT22;33316;52.298;9.056;2023-11-19T01:37:32;9.50;99.90
47590;DHT22;33316;52.298;9.056;2023-11-19T01:40:00;9.50;99.90
47590;DHT22;33316;52.298;9.056;2023-11-19T01:42:28;9.50;99.90
47590;DHT22;33316;52.298;9.056;2023-11-19T01:44:58;9.60;99.90
47590;DHT22;33316;52.298;9.056;2023-11-19T01:47:26;9.60;99.90
47590;DHT22;33316;52.298;9.056;2023-11-19T01:49:54;9.60;99.90
47590;DHT22;33316;52.298;9.056;2023-11-19T01:52:23;9.70;99.90
47590;DHT22;33316;52.298;9.056;2023-11-19T01:54:52;9.70;99.90
47590;DHT22;33316;52.298;9.056;2023-11-19T01:57:19;9.70;99.90
47590;DHT22;33316;52.298;9.056;2023-11-19T01:59:46;9.70;99.90
47590;DHT22;33316;52.298;9.056;2023-11-19T02:02:13;9.70;99.90
47590;DHT22;33316;52.298;9.056;2023-11-19T02:04:40;9.80;99.90
47590;DHT22;33316;52.298;9.056;2023-11-19T02:07:08;9.80;99.90
47590;DHT22;33316;52.298;9.056;2023-11-19T02:09:37;9.80;99.90
47590;DHT22;33316;52.298;9.056;2023-11-19T02:12:05;9.80;99.90
47590;DHT22;33316;52.298;9.056;2023-11-19T02:14:33;9.80;99.90
47590;DHT22;33316;52.298;9.056;2023-11-19T02:17:00;9.90;99.90
47590;DHT22;33316;52.298;9.056;2023-11-19T02:19:27;9.90;99.90
47590;DHT22;33316;52.298;9.056;2023-11-19T02:21:54;9.90;99.90
47590;DHT22;33316;52.298;9.056;2023-11-19T02:24:22;9.90;99.90
47590;DHT22;33316;52.298;9.056;2023-11-19T02:26:55;10.00;99.90
47590;DHT22;33316;52.298;9.056;2023-11-19T02:29:25;10.00;99.90
47590;DHT22;33316;52.298;9.056;2023-11-19T02:31:52;10.00;99.90
47590;DHT22;33316;52.298;9.056;2023-11-19T02:34:20;10.00;99.90
47590;DHT22;33316;52.298;9.056;2023-11-19T02:36:48;10.10;99.90
47590;DHT22;33316;52.298;9.056;2023-11-19T02:39:15;10.10;99.90
47590;DHT22;33316;52.298;9.056;2023-11-19T02:41:46;10.10;99.90
47590;DHT22;33316;52.298;9.056;2023-11-19T02:44:16;10.20;99.90
47590;DHT22;33316;52.298;9.056;2023-11-19T02:46:44;10.20;99.90
47590;DHT22;33316;52.298;9.056;2023-11-19T02:49:13;10.20;99.90
47590;DHT22;33316;52.298;9.056;2023-11-19T02:51:40;10.20;99.90
47590;DHT22;33316;52.298;9.056;2023-11-19T02:54:07;10.30;99.90
47590;DHT22;33316;52.298;9.056;2023-11-19T02:56:35;10.30;99.90
47590;DHT22;33316;52.298;9.056;2023-11-19T02:59:04;10.30;99.90
47590;DHT22;33316;52.298;9.056;2023-11-19T03:01:40;10.30;99.90
47590;DHT22;33316;52.298;9.056;2023-11-19T03:04:11;10.30;99.90
47590;DHT22;33316;52.298;9.056;2023-11-19T03:06:42;10.40;99.90
47590;DHT22;33316;52.298;9.056;2023-11-19T03:09:09;10.40;99.90
47590;DHT22;33316;52.298;9.056;2023-11-19T03:11:37;10.40;99.90
47590;DHT22;33316;52.298;9.056;2023-11-19T03:14:03;10.40;99.90
47590;DHT22;33316;52.298;9.056;2023-11-19T03:16:31;10.50;99.90
47590;DHT22;33316;52.298;9.056;2023-11-19T03:18:57;10.50;99.90
47590;DHT22;33316;52.298;9.056;2023-11-19T03:21:30;10.50;99.90
47590;DHT22;33316;52.298;9.056;2023-11-19T03:23:58;10.50;99.90
47590;DHT22;33316;52.298;9.056;2023-11-19T03:26:26;10.50;99.90
47590;DHT22;33316;52.298;9.056;2023-11-19T03:28:52;10.60;99.90
47590;DHT22;33316;52.298;9.056;2023-11-19T03:31:21;10.60;99.90
47590;DHT22;33316;52.298;9.056;2023-11-19T03:33:51;10.60;99.90
47590;DHT22;33316;52.298;9.056;2023-11-19T03:36:18;10.60;99.90
47590;DHT22;33316;52.298;9.056;2023-11-19T03:38:46;10.60;99.90
47590;DHT22;33316;52.298;9.056;2023-11-19T03:41:14;10.60;99.90
47590;DHT22;33316;52.298;9.056;2023-11-19T03:43:41;10.70;99.90
47590;DHT22;33316;52.298;9.056;2023-11-19T03:46:15;10.70;99.90
47590;DHT22;33316;52.298;9.056;2023-11-19T03:48:42;10.70;99.90
47590;DHT22;33316;52.298;9.056;2023-11-19T03:51:09;10.70;99.90
47590;DHT22;33316;52.298;9.056;2023-11-19T03:53:37;10.70;99.90
47590;DHT22;33316;52.298;9.056;2023-11-19T03:56:06;10.70;99.90
47590;DHT22;33316;52.298;9.056;2023-11-19T03:58:34;10.80;99.90
47590;DHT22;33316;52.298;9.056;2023-11-19T04:01:01;10.80;99.90
47590;DHT22;33316;52.298;9.056;2023-11-19T04:03:29;10.80;99.90
47590;DHT22;33316;52.298;9.056;2023-11-19T04:05:56;10.80;99.90
47590;DHT22;33316;52.298;9.056;2023-11-19T04:08:23;10.90;99.90
47590;DHT22;33316;52.298;9.056;2023-11-19T04:10:50;10.90;99.90
47590;DHT22;33316;52.298;9.056;2023-11-19T04:13:18;10.90;99.90
47590;DHT22;33316;52.298;9.056;2023-11-19T04:15:45;10.90;99.90
47590;DHT22;33316;52.298;9.056;2023-11-19T04:18:13;10.90;99.90
47590;DHT22;33316;52.298;9.056;2023-11-19T04:20:40;11.00;99.90
47590;DHT22;33316;52.298;9.056;2023-11-19T04:23:07;11.00;99.90
47590;DHT22;33316;52.298;9.056;2023-11-19T04:25:35;11.00;99.90
47590;DHT22;33316;52.298;9.056;2023-11-19T04:28:04;11.00;99.90
47590;DHT22;33316;52.298;9.056;2023-11-19T04:30:32;11.10;99.90
47590;DHT22;33316;52.298;9.056;2023-11-19T04:32:59;11.10;99.90
47590;DHT22;33316;52.298;9.056;2023-11-19T04:35:26;11.10;99.90
47590;DHT22;33316;52.298;9.056;2023-11-19T04:37:54;11.20;99.90
47590;DHT22;33316;52.298;9.056;2023-11-19T04:40:24;11.10;99.90
47590;DHT22;33316;52.298;9.056;2023-11-19T04:42:51;11.20;99.90
47590;DHT22;33316;52.298;9.056;2023-11-19T04:45:18;11.20;99.90
47590;DHT22;33316;52.298;9.056;2023-11-19T04:47:47;11.20;99.90
47590;DHT22;33316;52.298;9.056;2023-11-19T04:50:14;11.30;99.90
47590;DHT22;33316;52.298;9.056;2023-11-19T04:52:41;11.30;99.90
47590;DHT22;33316;52.298;9.056;2023-11-19T04:55:10;11.40;99.90
47590;DHT22;33316;52.298;9.056;2023-11-19T04:57:39;11.30;99.90
47590;DHT22;33316;52.298;9.056;2023-11-19T05:00:09;11.30;99.90
47590;DHT22;33316;52.298;9.056;2023-11-19T05:02:37;11.30;99.90
47590;DHT22;33316;52.298;9.056;2023-11-19T05:05:06;11.30;99.90
47590;DHT22;33316;52.298;9.056;2023-11-19T05:07:32;11.30;99.90
47590;DHT22;33316;52.298;9.056;2023-11-19T05:09:59;11.40;99.90
47590;DHT22;33316;52.298;9.056;2023-11-19T05:12:26;11.40;99.90
47590;DHT22;33316;52.298;9.056;2023-11-19T05:14:53;11.40;99.90
47590;DHT22;33316;52.298;9.056;2023-11-19T05:17:20;11.40;99.90
47590;DHT22;33316;52.298;9.056;2023-11-19T05:19:48;11.40;99.90
47590;DHT22;33316;52.298;9.056;2023-11-19T05:22:16;11.40;99.90
47590;DHT22;33316;52.298;9.056;2023-11-19T05:24:43;11.40;99.90
47590;DHT22;33316;52.298;9.056;2023-11-19T05:27:10;11.40;99.90
47590;DHT22;33316;52.298;9.056;2023-11-19T05:29:39;11.50;99.90
47590;DHT22;33316;52.298;9.056;2023-11-19T05:32:06;11.50;99.90
47590;DHT22;33316;52.298;9.056;2023-11-19T05:34:33;11.50;99.90
47590;DHT22;33316;52.298;9.056;2023-11-19T05:37:00;11.50;99.90
47590;DHT22;33316;52.298;9.056;2023-11-19T05:39:29;11.50;99.90
47590;DHT22;33316;52.298;9.056;2023-11-19T05:41:56;11.50;99.90
47590;DHT22;33316;52.298;9.056;2023-11-19T05:44:24;11.50;99.90
47590;DHT22;33316;52.298;9.056;2023-11-19T05:46:52;11.50;99.90
47590;DHT22;33316;52.298;9.056;2023-11-19T05:49:23;11.50;99.90
47590;DHT22;33316;52.298;9.056;2023-11-19T05:51:50;11.50;99.90
47590;DHT22;33316;52.298;9.056;2023-11-19T05:54:21;11.60;99.90
47590;DHT22;33316;52.298;9.056;2023-11-19T05:56:49;11.60;99.90
47590;DHT22;33316;52.298;9.056;2023-11-19T05:59:19;11.60;99.90
47590;DHT22;33316;52.298;9.056;2023-11-19T06:01:48;11.60;99.90
47590;DHT22;33316;52.298;9.056;2023-11-19T06:04:15;11.60;99.90
47590;DHT22;33316;52.298;9.056;2023-11-19T06:06:42;11.60;99.90
47590;DHT22;33316;52.298;9.056;2023-11-19T06:09:09;11.60;99.90
47590;DHT22;33316;52.298;9.056;2023-11-19T06:11:39;11.60;99.90
47590;DHT22;33316;52.298;9.056;2023-11-19T06:14:08;11.60;99.90
47590;DHT22;33316;52.298;9.056;2023-11-19T06:16:36;11.60;99.90
47590;DHT22;33316;52.298;9.056;2023-11-19T06:19:05;11.60;99.90
47590;DHT22;33316;52.298;9.056;2023-11-19T06:21:31;11.60;99.90
47590;DHT22;33316;52.298;9.056;2023-11-19T06:23:58;11.70;99.90
47590;DHT22;33316;52.298;9.056;2023-11-19T06:26:25;11.60;99.90
47590;DHT22;33316;52.298;9.056;2023-11-19T06:28:52;11.70;99.90
47590;DHT22;33316;52.298;9.056;2023-11-19T06:31:21;11.70;99.90
47590;DHT22;33316;52.298;9.056;2023-11-19T06:33:47;11.70;99.90
47590;DHT22;33316;52.298;9.056;2023-11-19T06:36:14;11.70;99.90
47590;DHT22;33316;52.298;9.056;2023-11-19T06:38:43;11.70;99.90
47590;DHT22;33316;52.298;9.056;2023-11-19T06:41:10;11.70;99.90
47590;DHT22;33316;52.298;9.056;2023-11-19T06:43:37;11.70;99.90
47590;DHT22;33316;52.298;9.056;2023-11-19T06:46:05;11.70;99.90
47590;DHT22;33316;52.298;9.056;2023-11-19T06:48:35;11.70;99.90
47590;DHT22;33316;52.298;9.056;2023-11-19T06:51:04;11.70;99.90
47590;DHT22;33316;52.298;9.056;2023-11-19T06:53:31;11.60;99.90
47590;DHT22;33316;52.298;9.056;2023-11-19T06:55:58;11.60;99.90
47590;DHT22;33316;52.298;9.056;2023-11-19T06:58:26;11.60;99.90
47590;DHT22;33316;52.298;9.056;2023-11-19T07:00:53;11.70;99.90
47590;DHT22;33316;52.298;9.056;2023-11-19T07:03:20;11.60;99.90
47590;DHT22;33316;52.298;9.056;2023-11-19T07:05:48;11.60;99.90
47590;DHT22;33316;52.298;9.056;2023-11-19T07:08:16;11.60;99.90
47590;DHT22;33316;52.298;9.056;2023-11-19T07:10:43;11.60;99.90
47590;DHT22;33316;52.298;9.056;2023-11-19T07:13:12;11.60;99.90
47590;DHT22;33316;52.298;9.056;2023-11-19T07:15:40;11.60;99.90
47590;DHT22;33316;52.298;9.056;2023-11-19T07:18:08;11.60;99.90
47590;DHT22;33316;52.298;9.056;2023-11-19T07:20:37;11.60;99.90
47590;DHT22;33316;52.298;9.056;2023-11-19T07:23:07;11.60;99.90
47590;DHT22;33316;52.298;9.056;2023-11-19T07:25:34;11.60;99.90
47590;DHT22;33316;52.298;9.056;2023-11-19T07:28:02;11.60;99.90
47590;DHT22;33316;52.298;9.056;2023-11-19T07:30:30;11.60;99.90
47590;DHT22;33316;52.298;9.056;2023-11-19T07:32:57;11.60;99.90
47590;DHT22;33316;52.298;9.056;2023-11-19T07:35:24;11.60;99.90
47590;DHT22;33316;52.298;9.056;2023-11-19T07:37:53;11.60;99.90
47590;DHT22;33316;52.298;9.056;2023-11-19T07:40:24;11.60;99.90
47590;DHT22;33316;52.298;9.056;2023-11-19T07:42:51;11.60;99.90
47590;DHT22;33316;52.298;9.056;2023-11-19T07:45:18;11.60;99.90
47590;DHT22;33316;52.298;9.056;2023-11-19T07:47:46;11.60;99.90
47590;DHT22;33316;52.298;9.056;2023-11-19T07:50:14;11.60;99.90
47590;DHT22;33316;52.298;9.056;2023-11-19T07:52:45;11.60;99.90
47590;DHT22;33316;52.298;9.056;2023-11-19T07:55:12;11.60;99.90
47590;DHT22;33316;52.298;9.056;2023-11-19T07:57:47;11.60;99.90
47590;DHT22;33316;52.298;9.056;2023-11-19T08:00:14;11.60;99.90
47590;DHT22;33316;52.298;9.056;2023-11-19T08:02:41;11.60;99.90
47590;DHT22;33316;52.298;9.056;2023-11-19T08:05:11;11.60;99.90
47590;DHT22;33316;52.298;9.056;2023-11-19T08:07:38;11.70;99.90
47590;DHT22;33316;52.298;9.056;2023-11-19T08:10:06;11.70;99.90
47590;DHT22;33316;52.298;9.056;2023-11-19T08:12:36;11.70;99.90
47590;DHT22;33316;52.298;9.056;2023-11-19T08:15:06;11.60;99.90
47590;DHT22;33316;52.298;9.056;2023-11-19T08:17:35;11.60;99.90
47590;DHT22;33316;52.298;9.056;2023-11-19T08:20:04;11.60;99.90
47590;DHT22;33316;52.298;9.056;2023-11-19T08:22:33;11.70;99.90
47590;DHT22;33316;52.298;9.056;2023-11-19T08:25:00;11.60;99.90
47590;DHT22;33316;52.298;9.056;2023-11-19T08:27:28;11.70;99.90
47590;DHT22;33316;52.298;9.056;2023-11-19T08:29:55;11.70;99.90
47590;DHT22;33316;52.298;9.056;2023-11-19T08:32:24;11.70;99.90
47590;DHT22;33316;52.298;9.056;2023-11-19T08:34:50;11.70;99.90
47590;DHT22;33316;52.298;9.056;2023-11-19T08:37:18;11.70;99.90
47590;DHT22;33316;52.298;9.056;2023-11-19T08:39:47;11.70;99.90
47590;DHT22;33316;52.298;9.056;2023-11-19T08:42:17;11.70;99.90
47590;DHT22;33316;52.298;9.056;2023-11-19T08:44:48;11.70;99.90
47590;DHT22;33316;52.298;9.056;2023-11-19T08:47:16;11.70;99.90
47590;DHT22;33316;52.298;9.056;2023-11-19T08:49:45;11.80;99.90
47590;DHT22;33316;52.298;9.056;2023-11-19T08:52:13;11.80;99.90
47590;DHT22;33316;52.298;9.056;2023-11-19T08:54:42;11.80;99.90
47590;DHT22;33316;52.298;9.056;2023-11-19T08:57:09;11.80;99.90
47590;DHT22;33316;52.298;9.056;2023-11-19T08:59:35;11.80;99.90
47590;DHT22;33316;52.298;9.056;2023-11-19T09:02:04;11.80;99.90
47590;DHT22;33316;52.298;9.056;2023-11-19T09:04:32;11.80;99.90
47590;DHT22;33316;52.298;9.056;2023-11-19T09:07:00;11.90;99.90
47590;DHT22;33316;52.298;9.056;2023-11-19T09:09:29;11.90;99.90
47590;DHT22;33316;52.298;9.056;2023-11-19T09:11:59;11.90;99.90
47590;DHT22;33316;52.298;9.056;2023-11-19T09:14:28;11.90;99.90
47590;DHT22;33316;52.298;9.056;2023-11-19T09:16:56;12.00;99.90
47590;DHT22;33316;52.298;9.056;2023-11-19T09:19:23;12.00;99.90
47590;DHT22;33316;52.298;9.056;2023-11-19T09:21:51;12.10;99.90
47590;DHT22;33316;52.298;9.056;2023-11-19T09:24:28;12.10;99.90
47590;DHT22;33316;52.298;9.056;2023-11-19T09:26:55;12.10;99.90
47590;DHT22;33316;52.298;9.056;2023-11-19T09:29:21;12.20;99.90
47590;DHT22;33316;52.298;9.056;2023-11-19T09:31:50;12.20;99.90
47590;DHT22;33316;52.298;9.056;2023-11-19T09:34:17;12.30;99.90
47590;DHT22;33316;52.298;9.056;2023-11-19T09:36:44;12.30;99.90
47590;DHT22;33316;52.298;9.056;2023-11-19T09:39:11;12.40;99.90
47590;DHT22;33316;52.298;9.056;2023-11-19T09:41:40;12.40;99.90
47590;DHT22;33316;52.298;9.056;2023-11-19T09:44:07;12.40;99.90
47590;DHT22;33316;52.298;9.056;2023-11-19T09:46:34;12.40;99.90
47590;DHT22;33316;52.298;9.056;2023-11-19T09:49:02;12.50;99.90
47590;DHT22;33316;52.298;9.056;2023-11-19T09:51:29;12.40;99.90
47590;DHT22;33316;52.298;9.056;2023-11-19T09:53:58;12.50;99.90
47590;DHT22;33316;52.298;9.056;2023-11-19T09:56:26;12.50;99.90
47590;DHT22;33316;52.298;9.056;2023-11-19T09:58:56;12.50;99.90
47590;DHT22;33316;52.298;9.056;2023-11-19T10:01:23;12.50;99.90
47590;DHT22;33316;52.298;9.056;2023-11-19T10:03:51;12.50;99.90
47590;DHT22;33316;52.298;9.056;2023-11-19T10:06:23;12.60;99.90
47590;DHT22;33316;52.298;9.056;2023-11-19T10:08:52;12.60;99.90
47590;DHT22;33316;52.298;9.056;2023-11-19T10:11:21;12.50;99.90
47590;DHT22;33316;52.298;9.056;2023-11-19T10:13:48;12.50;99.90
47590;DHT22;33316;52.298;9.056;2023-11-19T10:16:17;12.50;99.90
47590;DHT22;33316;52.298;9.056;2023-11-19T10:18:44;12.50;99.90
47590;DHT22;33316;52.298;9.056;2023-11-19T10:21:12;12.50;99.90
47590;DHT22;33316;52.298;9.056;2023-11-19T10:23:50;12.50;99.90
47590;DHT22;33316;52.298;9.056;2023-11-19T10:26:17;12.50;99.90
47590;DHT22;33316;52.298;9.056;2023-11-19T10:28:45;12.50;99.90
47590;DHT22;33316;52.298;9.056;2023-11-19T10:31:14;12.50;99.90
47590;DHT22;33316;52.298;9.056;2023-11-19T10:33:42;12.50;99.90
47590;DHT22;33316;52.298;9.056;2023-11-19T10:36:11;12.50;99.90
47590;DHT22;33316;52.298;9.056;2023-11-19T10:38:38;12.50;99.90
47590;DHT22;33316;52.298;9.056;2023-11-19T10:41:06;12.50;99.90
47590;DHT22;33316;52.298;9.056;2023-11-19T10:43:45;12.50;99.90
47590;DHT22;33316;52.298;9.056;2023-11-19T10:46:14;12.50;99.90
47590;DHT22;33316;52.298;9.056;2023-11-19T10:48:51;12.60;99.90
47590;DHT22;33316;52.298;9.056;2023-11-19T10:51:18;12.60;99.90
47590;DHT22;33316;52.298;9.056;2023-11-19T10:53:50;12.60;99.90
47590;DHT22;33316;52.298;9.056;2023-11-19T10:56:18;12.60;99.90
47590;DHT22;33316;52.298;9.056;2023-11-19T10:58:48;12.60;99.90
47590;DHT22;33316;52.298;9.056;2023-11-19T11:01:17;12.60;99.90
47590;DHT22;33316;52.298;9.056;2023-11-19T11:03:48;12.60;99.90
47590;DHT22;33316;52.298;9.056;2023-11-19T11:06:19;12.70;99.90
47590;DHT22;33316;52.298;9.056;2023-11-19T11:08:49;12.60;99.90
47590;DHT22;33316;52.298;9.056;2023-11-19T11:11:18;12.70;99.90
47590;DHT22;33316;52.298;9.056;2023-11-19T11:13:46;12.70;99.90
47590;DHT22;33316;52.298;9.056;2023-11-19T11:16:14;12.70;99.90
47590;DHT22;33316;52.298;9.056;2023-11-19T11:18:41;12.70;99.90
47590;DHT22;33316;52.298;9.056;2023-11-19T11:21:10;12.70;99.90
47590;DHT22;33316;52.298;9.056;2023-11-19T11:23:47;12.70;99.90
47590;DHT22;33316;52.298;9.056;2023-11-19T11:26:28;12.70;99.90
47590;DHT22;33316;52.298;9.056;2023-11-19T11:28:58;12.80;99.90
47590;DHT22;33316;52.298;9.056;2023-11-19T11:31:29;12.80;99.90
47590;DHT22;33316;52.298;9.056;2023-11-19T11:34:02;12.80;99.90
47590;DHT22;33316;52.298;9.056;2023-11-19T11:36:35;12.90;99.90
47590;DHT22;33316;52.298;9.056;2023-11-19T11:39:07;12.90;99.90
47590;DHT22;33316;52.298;9.056;2023-11-19T11:41:34;12.90;99.90
47590;DHT22;33316;52.298;9.056;2023-11-19T11:44:01;13.00;99.90
47590;DHT22;33316;52.298;9.056;2023-11-19T11:49:26;13.00;99.90
47590;DHT22;33316;52.298;9.056;2023-11-19T11:54:43;13.00;99.90
47590;DHT22;33316;52.298;9.056;2023-11-19T11:57:11;13.00;99.90
47590;DHT22;33316;52.298;9.056;2023-11-19T11:59:48;13.00;99.90
47590;DHT22;33316;52.298;9.056;2023-11-19T12:02:15;13.00;99.90
47590;DHT22;33316;52.298;9.056;2023-11-19T12:04:42;13.00;99.90
47590;DHT22;33316;52.298;9.056;2023-11-19T12:07:12;13.00;99.90
47590;DHT22;33316;52.298;9.056;2023-11-19T12:09:46;13.00;99.90
47590;DHT22;33316;52.298;9.056;2023-11-19T12:12:21;12.90;99.90
47590;DHT22;33316;52.298;9.056;2023-11-19T12:15:01;13.00;99.90
47590;DHT22;33316;52.298;9.056;2023-11-19T12:20:18;12.90;99.90
47590;DHT22;33316;52.298;9.056;2023-11-19T12:22:46;12.90;99.90
47590;DHT22;33316;52.298;9.056;2023-11-19T12:25:16;12.90;99.90
47590;DHT22;33316;52.298;9.056;2023-11-19T12:27:43;12.80;99.90
47590;DHT22;33316;52.298;9.056;2023-11-19T12:30:11;12.80;99.90
47590;DHT22;33316;52.298;9.056;2023-11-19T12:32:39;12.80;99.90
47590;DHT22;33316;52.298;9.056;2023-11-19T12:35:06;12.80;99.90
47590;DHT22;33316;52.298;9.056;2023-11-19T12:37:40;12.80;99.90
47590;DHT22;33316;52.298;9.056;2023-11-19T12:40:25;12.70;99.90
47590;DHT22;33316;52.298;9.056;2023-11-19T12:42:55;12.80;99.90
47590;DHT22;33316;52.298;9.056;2023-11-19T12:45:22;12.80;99.90
47590;DHT22;33316;52.298;9.056;2023-11-19T12:47:50;12.80;99.90
47590;DHT22;33316;52.298;9.056;2023-11-19T12:50:31;12.80;99.90
47590;DHT22;33316;52.298;9.056;2023-11-19T12:53:27;12.80;99.90
47590;DHT22;33316;52.298;9.056;2023-11-19T12:55:55;12.80;99.90
47590;DHT22;33316;52.298;9.056;2023-11-19T12:58:42;12.80;99.90
47590;DHT22;33316;52.298;9.056;2023-11-19T13:01:09;12.80;99.90
47590;DHT22;33316;52.298;9.056;2023-11-19T13:03:37;12.80;99.90
47590;DHT22;33316;52.298;9.056;2023-11-19T13:06:04;12.80;99.90
47590;DHT22;33316;52.298;9.056;2023-11-19T13:08:36;12.80;99.90
47590;DHT22;33316;52.298;9.056;2023-11-19T13:11:06;12.80;99.90
47590;DHT22;33316;52.298;9.056;2023-11-19T13:13:33;12.80;99.90
47590;DHT22;33316;52.298;9.056;2023-11-19T13:16:02;12.80;99.90
47590;DHT22;33316;52.298;9.056;2023-11-19T13:18:30;12.80;99.90
47590;DHT22;33316;52.298;9.056;2023-11-19T13:20:57;12.80;99.90
47590;DHT22;33316;52.298;9.056;2023-11-19T13:23:24;12.80;99.90
47590;DHT22;33316;52.298;9.056;2023-11-19T13:25:51;12.80;99.90
47590;DHT22;33316;52.298;9.056;2023-11-19T13:28:19;12.80;99.90
47590;DHT22;33316;52.298;9.056;2023-11-19T13:30:50;12.80;99.90
47590;DHT22;33316;52.298;9.056;2023-11-19T13:33:17;12.80;99.90
47590;DHT22;33316;52.298;9.056;2023-11-19T13:35:44;12.80;99.90
47590;DHT22;33316;52.298;9.056;2023-11-19T13:38:11;12.90;99.90
47590;DHT22;33316;52.298;9.056;2023-11-19T13:40:38;12.90;99.90
47590;DHT22;33316;52.298;9.056;2023-11-19T13:43:07;12.80;99.90
47590;DHT22;33316;52.298;9.056;2023-11-19T13:45:36;12.90;99.90
47590;DHT22;33316;52.298;9.056;2023-11-19T13:48:04;12.90;99.90
47590;DHT22;33316;52.298;9.056;2023-11-19T13:50:31;12.90;99.90
47590;DHT22;33316;52.298;9.056;2023-11-19T13:52:59;12.90;99.90
47590;DHT22;33316;52.298;9.056;2023-11-19T13:55:26;12.90;99.90
47590;DHT22;33316;52.298;9.056;2023-11-19T13:57:53;12.90;99.90
47590;DHT22;33316;52.298;9.056;2023-11-19T14:00:20;12.90;99.90
47590;DHT22;33316;52.298;9.056;2023-11-19T14:02:53;12.90;99.90
47590;DHT22;33316;52.298;9.056;2023-11-19T14:05:20;12.90;99.90
47590;DHT22;33316;52.298;9.056;2023-11-19T14:07:47;12.90;99.90
47590;DHT22;33316;52.298;9.056;2023-11-19T14:10:14;12.90;99.90
47590;DHT22;33316;52.298;9.056;2023-11-19T14:12:42;12.80;99.90
47590;DHT22;33316;52.298;9.056;2023-11-19T14:15:09;12.80;99.90
47590;DHT22;33316;52.298;9.056;2023-11-19T14:17:38;12.80;99.90
47590;DHT22;33316;52.298;9.056;2023-11-19T14:20:07;12.80;99.90
47590;DHT22;33316;52.298;9.056;2023-11-19T14:22:38;12.80;99.90
47590;DHT22;33316;52.298;9.056;2023-11-19T14:25:08;12.90;99.90
47590;DHT22;33316;52.298;9.056;2023-11-19T14:27:35;12.90;99.90
47590;DHT22;33316;52.298;9.056;2023-11-19T14:30:04;12.90;99.90
47590;DHT22;33316;52.298;9.056;2023-11-19T14:32:33;12.90;99.90
47590;DHT22;33316;52.298;9.056;2023-11-19T14:34:59;12.90;99.90
47590;DHT22;33316;52.298;9.056;2023-11-19T14:37:28;12.80;99.90
47590;DHT22;33316;52.298;9.056;2023-11-19T14:39:57;12.80;99.90
47590;DHT22;33316;52.298;9.056;2023-11-19T14:42:25;12.80;99.90
47590;DHT22;33316;52.298;9.056;2023-11-19T14:44:51;12.80;99.90
47590;DHT22;33316;52.298;9.056;2023-11-19T14:47:19;12.80;99.90
47590;DHT22;33316;52.298;9.056;2023-11-19T14:49:46;12.80;99.90
47590;DHT22;33316;52.298;9.056;2023-11-19T14:52:14;12.80;99.90
47590;DHT22;33316;52.298;9.056;2023-11-19T14:54:44;12.80;99.90
47590;DHT22;33316;52.298;9.056;2023-11-19T14:57:11;12.80;99.90
47590;DHT22;33316;52.298;9.056;2023-11-19T14:59:40;12.80;99.90
47590;DHT22;33316;52.298;9.056;2023-11-19T15:02:06;12.80;99.90
47590;DHT22;33316;52.298;9.056;2023-11-19T15:04:33;12.70;99.90
47590;DHT22;33316;52.298;9.056;2023-11-19T15:07:00;12.70;99.90
47590;DHT22;33316;52.298;9.056;2023-11-19T15:09:28;12.80;99.90
47590;DHT22;33316;52.298;9.056;2023-11-19T15:11:57;12.70;99.90
47590;DHT22;33316;52.298;9.056;2023-11-19T15:14:24;12.70;99.90
47590;DHT22;33316;52.298;9.056;2023-11-19T15:16:52;12.70;99.90
47590;DHT22;33316;52.298;9.056;2023-11-19T15:19:18;12.70;99.90
47590;DHT22;33316;52.298;9.056;2023-11-19T15:21:46;12.70;99.90
47590;DHT22;33316;52.298;9.056;2023-11-19T15:24:13;12.70;99.90
47590;DHT22;33316;52.298;9.056;2023-11-19T15:26:40;12.60;99.90
47590;DHT22;33316;52.298;9.056;2023-11-19T15:29:10;12.60;99.90
47590;DHT22;33316;52.298;9.056;2023-11-19T15:31:38;12.60;99.90
47590;DHT22;33316;52.298;9.056;2023-11-19T15:34:05;12.60;99.90
47590;DHT22;33316;52.298;9.056;2023-11-19T15:36:32;12.60;99.90
47590;DHT22;33316;52.298;9.056;2023-11-19T15:39:01;12.60;99.90
47590;DHT22;33316;52.298;9.056;2023-11-19T15:41:28;12.60;99.90
47590;DHT22;33316;52.298;9.056;2023-11-19T15:43:55;12.60;99.90
47590;DHT22;33316;52.298;9.056;2023-11-19T15:46:24;12.50;99.90
47590;DHT22;33316;52.298;9.056;2023-11-19T15:48:51;12.50;99.90